createdAt,value
2023-12-30T00:00:37.941Z,75.38
2023-12-30T00:03:05.193Z,76.06
2023-12-30T00:05:32.275Z,75.79
2023-12-30T00:07:59.340Z,75.73
2023-12-30T00:10:26.558Z,75.56
2023-12-30T00:12:53.737Z,74.51
2023-12-30T00:15:22.104Z,74.82
2023-12-30T00:17:49.322Z,74.76
2023-12-30T00:20:16.345Z,74.67
2023-12-30T00:22:43.384Z,75.21
2023-12-30T00:25:11.490Z,75.68
2023-12-30T00:27:38.675Z,75.83
2023-12-30T00:30:06.618Z,75.66
2023-12-30T00:32:33.992Z,75.15
2023-12-30T00:35:01.303Z,75.39
2023-12-30T00:37:28.410Z,75.62
2023-12-30T00:39:55.382Z,75.50
2023-12-30T00:42:22.516Z,76.06
2023-12-30T00:44:49.526Z,75.25
2023-12-30T00:47:16.343Z,74.80
2023-12-30T00:49:43.401Z,74.12
2023-12-30T00:52:11.346Z,73.93
2023-12-30T00:54:44.630Z,74.11
2023-12-30T00:57:17.568Z,74.69
2023-12-30T00:59:44.577Z,73.80
2023-12-30T01:02:11.572Z,73.74
2023-12-30T01:04:38.744Z,74.85
2023-12-30T01:07:05.617Z,74.91
2023-12-30T01:09:32.764Z,75.72
2023-12-30T01:11:59.778Z,75.78
2023-12-30T01:14:26.540Z,75.98
2023-12-30T01:16:53.319Z,74.94
2023-12-30T01:19:20.180Z,75.08
2023-12-30T01:21:47.792Z,75.11
2023-12-30T01:24:14.664Z,74.15
2023-12-30T01:26:41.651Z,74.10
2023-12-30T01:29:08.892Z,74.57
2023-12-30T01:31:35.989Z,74.35
2023-12-30T01:34:03.182Z,74.35
2023-12-30T01:36:30.195Z,75.33
2023-12-30T01:38:57.278Z,74.57
2023-12-30T01:41:24.185Z,73.96
2023-12-30T01:43:51.261Z,74.58
2023-12-30T01:46:18.285Z,74.96
2023-12-30T01:48:45.764Z,75.57
2023-12-30T01:51:24.372Z,74.39
2023-12-30T01:53:53.831Z,74.78
2023-12-30T01:56:21.887Z,74.49
2023-12-30T01:58:53.737Z,74.94
2023-12-30T02:01:23.856Z,74.83
2023-12-30T02:03:51.193Z,74.83
2023-12-30T02:06:18.310Z,74.92
2023-12-30T02:08:45.343Z,75.67
2023-12-30T02:11:13.294Z,75.81
2023-12-30T02:13:43.926Z,75.45
2023-12-30T02:16:11.985Z,75.21
2023-12-30T02:18:39.434Z,75.00
2023-12-30T02:21:06.616Z,74.90
2023-12-30T02:23:33.607Z,75.07
2023-12-30T02:26:00.380Z,75.06
2023-12-30T02:28:27.374Z,75.53
2023-12-30T02:30:54.485Z,75.61
2023-12-30T02:33:21.571Z,76.36
2023-12-30T02:35:48.399Z,76.18
2023-12-30T02:38:15.480Z,76.45
2023-12-30T02:40:42.331Z,76.30
2023-12-30T02:43:09.461Z,76.13
2023-12-30T02:45:36.804Z,75.38
2023-12-30T02:48:04.399Z,75.67
2023-12-30T02:50:31.210Z,75.35
2023-12-30T02:52:58.317Z,75.27
2023-12-30T02:55:25.408Z,75.52
2023-12-30T02:57:52.470Z,76.02
2023-12-30T03:00:19.845Z,76.07
2023-12-30T03:02:47.272Z,75.38
2023-12-30T03:05:14.734Z,75.20
2023-12-30T03:07:41.960Z,75.45
2023-12-30T03:10:09.885Z,75.65
2023-12-30T03:12:37.034Z,76.07
2023-12-30T03:15:04.028Z,75.55
2023-12-30T03:17:31.132Z,75.41
2023-12-30T03:19:58.299Z,74.79
2023-12-30T03:22:25.958Z,74.99
2023-12-30T03:24:53.096Z,74.76
2023-12-30T03:27:20.240Z,75.15
2023-12-30T03:29:47.315Z,75.12
2023-12-30T03:32:14.921Z,74.97
2023-12-30T03:34:42.039Z,74.94
2023-12-30T03:37:09.074Z,74.89
2023-12-30T03:39:36.485Z,74.92
2023-12-30T03:42:03.662Z,74.83
2023-12-30T03:44:30.727Z,74.71
2023-12-30T03:46:57.798Z,74.69
2023-12-30T03:49:25.180Z,74.69
2023-12-30T03:51:52.427Z,74.82
2023-12-30T03:54:19.386Z,75.20
2023-12-30T03:56:48.367Z,75.14
2023-12-30T03:59:15.491Z,74.74
2023-12-30T04:01:44.172Z,75.00
2023-12-30T04:04:11.711Z,74.93
2023-12-30T04:06:38.801Z,75.43
2023-12-30T04:09:05.665Z,75.32
2023-12-30T04:11:32.458Z,75.37
2023-12-30T04:13:59.574Z,75.20
2023-12-30T04:16:26.672Z,75.56
2023-12-30T04:18:53.986Z,74.67
2023-12-30T04:21:21.217Z,74.85
2023-12-30T04:23:48.315Z,74.68
2023-12-30T04:26:15.343Z,75.22
2023-12-30T04:28:42.399Z,75.43
2023-12-30T04:31:09.506Z,75.70
2023-12-30T04:33:36.708Z,75.62
2023-12-30T04:36:04.299Z,76.06
2023-12-30T04:38:31.108Z,75.67
2023-12-30T04:40:57.895Z,76.30
2023-12-30T04:43:24.904Z,76.88
2023-12-30T04:45:51.955Z,76.49
2023-12-30T04:48:19.082Z,76.22
2023-12-30T04:50:45.929Z,76.83
2023-12-30T04:53:12.806Z,76.73
2023-12-30T04:55:39.832Z,76.70
2023-12-30T04:58:06.887Z,75.69
2023-12-30T05:00:34.647Z,75.42
2023-12-30T05:03:01.780Z,75.62
2023-12-30T05:05:29.173Z,76.12
2023-12-30T05:07:56.218Z,75.70
2023-12-30T05:10:23.295Z,75.81
2023-12-30T05:12:50.956Z,75.63
2023-12-30T05:15:18.149Z,75.66
2023-12-30T05:17:45.345Z,76.08
2023-12-30T05:20:13.925Z,75.65
2023-12-30T05:22:41.766Z,75.95
2023-12-30T05:25:09.348Z,75.67
2023-12-30T05:27:36.982Z,75.21
2023-12-30T05:30:05.564Z,75.18
2023-12-30T05:32:32.648Z,75.17
2023-12-30T05:35:00.591Z,74.94
2023-12-30T05:37:27.517Z,75.16
2023-12-30T05:39:55.147Z,75.21
2023-12-30T05:42:22.326Z,74.38
2023-12-30T05:44:49.306Z,74.43
2023-12-30T05:47:16.306Z,74.84
2023-12-30T05:49:43.159Z,74.69
2023-12-30T05:52:10.298Z,74.39
2023-12-30T05:54:37.331Z,74.29
2023-12-30T05:57:04.563Z,74.22
2023-12-30T05:59:31.466Z,74.82
2023-12-30T06:02:00.089Z,75.18
2023-12-30T06:04:27.335Z,74.83
2023-12-30T06:06:55.342Z,74.90
2023-12-30T06:09:22.497Z,74.96
2023-12-30T06:11:50.013Z,74.95
2023-12-30T06:14:17.268Z,74.94
2023-12-30T06:16:44.304Z,74.39
2023-12-30T06:19:12.884Z,75.20
2023-12-30T06:21:40.702Z,75.38
2023-12-30T06:24:07.743Z,74.84
2023-12-30T06:26:39.190Z,74.49
2023-12-30T06:29:07.835Z,74.58
2023-12-30T06:31:34.885Z,74.19
2023-12-30T06:34:01.989Z,75.20
2023-12-30T06:36:29.005Z,75.84
2023-12-30T06:38:56.029Z,76.03
2023-12-30T06:41:23.083Z,76.71
2023-12-30T06:43:50.162Z,76.65
2023-12-30T06:46:21.374Z,76.64
2023-12-30T06:48:48.573Z,76.39
2023-12-30T06:51:15.506Z,77.14
2023-12-30T06:53:42.485Z,76.87
2023-12-30T06:56:09.464Z,76.63
2023-12-30T06:58:37.118Z,75.33
2023-12-30T07:01:06.138Z,74.76
2023-12-30T07:03:33.544Z,74.77
2023-12-30T07:06:00.737Z,74.49
2023-12-30T07:08:27.864Z,74.57
2023-12-30T07:10:54.954Z,74.39
2023-12-30T07:13:22.067Z,74.79
2023-12-30T07:15:49.092Z,75.29
2023-12-30T07:18:16.387Z,75.65
2023-12-30T07:20:43.503Z,75.44
2023-12-30T07:23:10.560Z,75.25
2023-12-30T07:25:37.691Z,74.88
2023-12-30T07:28:04.938Z,74.64
2023-12-30T07:30:32.024Z,74.35
2023-12-30T07:32:59.310Z,74.13
2023-12-30T07:35:28.487Z,73.85
2023-12-30T07:37:55.348Z,73.32
2023-12-30T07:40:22.627Z,72.75
2023-12-30T07:42:49.494Z,72.31
2023-12-30T07:45:16.354Z,71.75
2023-12-30T07:47:43.369Z,70.99
2023-12-30T07:50:10.379Z,69.98
2023-12-30T07:52:37.494Z,68.87
2023-12-30T07:55:04.896Z,68.46
2023-12-30T07:57:31.935Z,68.61
2023-12-30T07:59:59.004Z,68.60
2023-12-30T08:02:25.869Z,68.57
2023-12-30T08:04:55.644Z,68.17
2023-12-30T08:07:22.983Z,67.89
2023-12-30T08:09:50.045Z,67.44
2023-12-30T08:12:17.050Z,67.07
2023-12-30T08:14:43.849Z,66.88
2023-12-30T08:17:10.720Z,68.77
2023-12-30T08:19:37.871Z,68.63
2023-12-30T08:22:04.910Z,69.43
2023-12-30T08:24:31.636Z,68.74
2023-12-30T08:26:58.511Z,67.51
2023-12-30T08:29:25.569Z,67.73
2023-12-30T08:31:52.389Z,66.93
2023-12-30T08:34:21.884Z,67.04
2023-12-30T08:36:48.774Z,67.89
2023-12-30T08:39:15.773Z,67.51
2023-12-30T08:41:42.783Z,67.55
2023-12-30T08:44:10.019Z,67.51
2023-12-30T08:46:37.653Z,67.93
2023-12-30T08:49:07.411Z,67.74
2023-12-30T08:51:36.121Z,67.52
2023-12-30T08:54:03.125Z,68.36
2023-12-30T08:56:34.567Z,68.24
2023-12-30T08:59:01.974Z,67.91
2023-12-30T09:01:28.968Z,67.39
2023-12-30T09:03:56.157Z,67.31
2023-12-30T09:06:23.208Z,68.64
2023-12-30T09:08:50.295Z,68.62
2023-12-30T09:11:20.778Z,68.55
2023-12-30T09:13:48.819Z,68.63
2023-12-30T09:16:15.732Z,68.78
2023-12-30T09:18:43.397Z,69.27
2023-12-30T09:21:10.800Z,69.10
2023-12-30T09:23:38.604Z,68.96
2023-12-30T09:26:05.856Z,67.26
2023-12-30T09:28:33.400Z,66.74
2023-12-30T09:31:00.963Z,67.56
2023-12-30T09:33:27.982Z,65.78
2023-12-30T09:35:56.040Z,65.44
2023-12-30T09:38:26.559Z,65.07
2023-12-30T09:40:55.402Z,64.58
2023-12-30T09:43:25.125Z,64.80
2023-12-30T09:45:52.970Z,63.69
2023-12-30T09:48:26.903Z,64.02
2023-12-30T09:50:59.918Z,62.81
2023-12-30T09:53:28.102Z,60.94
2023-12-30T09:55:55.268Z,59.70
2023-12-30T09:58:23.750Z,57.91
2023-12-30T10:00:51.198Z,56.30
2023-12-30T10:03:20.085Z,55.25
2023-12-30T10:05:48.512Z,52.89
2023-12-30T10:08:16.359Z,51.60
2023-12-30T10:10:54.735Z,51.23
2023-12-30T10:13:27.249Z,50.03
2023-12-30T10:15:56.429Z,50.09
2023-12-30T10:18:23.714Z,50.82
2023-12-30T10:20:50.821Z,50.13
2023-12-30T10:23:17.774Z,49.99
2023-12-30T10:25:46.930Z,49.38
2023-12-30T10:28:14.467Z,49.10
2023-12-30T10:30:41.649Z,48.09
2023-12-30T10:33:10.739Z,48.12
2023-12-30T10:35:42.377Z,48.43
2023-12-30T10:38:10.688Z,47.59
2023-12-30T10:40:37.685Z,47.66
2023-12-30T10:43:05.645Z,48.99
2023-12-30T10:45:32.648Z,48.89
2023-12-30T10:48:01.068Z,49.31
2023-12-30T10:50:28.815Z,48.91
2023-12-30T10:53:06.549Z,49.58
2023-12-30T10:55:34.807Z,49.68
2023-12-30T10:58:14.898Z,50.18
2023-12-30T11:00:43.921Z,50.33
2023-12-30T11:03:11.240Z,50.59
2023-12-30T11:06:06.130Z,50.23
2023-12-30T11:08:33.273Z,50.45
2023-12-30T11:11:03.768Z,49.78
2023-12-30T11:13:37.678Z,49.28
2023-12-30T11:16:15.347Z,47.27
2023-12-30T11:18:54.877Z,46.74
2023-12-30T11:21:37.653Z,45.27
2023-12-30T11:24:06.576Z,44.93
2023-12-30T11:26:35.357Z,43.98
2023-12-30T11:29:03.133Z,44.00
2023-12-30T11:31:35.256Z,42.84
2023-12-30T11:34:03.057Z,42.57
2023-12-30T11:36:30.361Z,42.32
2023-12-30T11:38:59.197Z,42.54
2023-12-30T11:41:27.462Z,41.18
2023-12-30T11:43:59.439Z,40.61
2023-12-30T11:46:29.810Z,38.62
2023-12-30T11:49:00.295Z,38.32
2023-12-30T11:51:31.742Z,38.29
2023-12-30T11:54:04.054Z,36.60
2023-12-30T11:56:31.273Z,36.00
2023-12-30T11:58:58.530Z,37.11
2023-12-30T12:01:25.693Z,39.15
2023-12-30T12:03:53.931Z,39.27
2023-12-30T12:06:20.901Z,39.21
2023-12-30T12:08:48.630Z,39.40
2023-12-30T12:11:15.537Z,39.43
2023-12-30T12:13:42.566Z,39.47
2023-12-30T12:16:09.854Z,38.92
2023-12-30T12:18:37.574Z,38.72
2023-12-30T12:21:12.548Z,37.30
2023-12-30T12:23:39.379Z,37.91
2023-12-30T12:26:08.111Z,37.94
2023-12-30T12:28:35.237Z,36.28
2023-12-30T12:31:03.295Z,35.86
2023-12-30T12:33:30.774Z,34.74
2023-12-30T12:35:57.662Z,33.49
2023-12-30T12:38:24.896Z,33.18
2023-12-30T12:40:52.507Z,33.25
2023-12-30T12:43:19.712Z,32.91
2023-12-30T12:45:46.512Z,33.38
2023-12-30T12:48:13.540Z,36.02
2023-12-30T12:50:40.702Z,37.04
2023-12-30T12:53:07.456Z,38.78
2023-12-30T12:55:34.334Z,38.72
2023-12-30T12:58:01.437Z,39.43
2023-12-30T13:00:28.491Z,39.94
2023-12-30T13:02:55.470Z,39.11
2023-12-30T13:05:23.688Z,38.53
2023-12-30T13:07:51.182Z,37.86
2023-12-30T13:10:37.581Z,37.07
2023-12-30T13:13:08.218Z,37.14
2023-12-30T13:15:36.027Z,37.34
2023-12-30T13:18:06.549Z,37.61
2023-12-30T13:20:33.699Z,39.08
2023-12-30T13:23:04.551Z,39.55
2023-12-30T13:25:31.891Z,40.17
2023-12-30T13:27:59.490Z,40.54
2023-12-30T13:30:26.443Z,41.12
2023-12-30T13:33:02.627Z,41.94
2023-12-30T13:35:39.965Z,41.82
2023-12-30T13:38:13.000Z,42.47
2023-12-30T13:40:42.244Z,42.58
2023-12-30T13:43:10.588Z,43.09
2023-12-30T13:45:48.137Z,43.35
2023-12-30T13:48:34.043Z,44.22
2023-12-30T13:51:03.077Z,44.15
2023-12-30T13:53:30.255Z,45.25
2023-12-30T13:55:59.274Z,45.79
2023-12-30T13:58:26.160Z,46.47
2023-12-30T14:00:53.213Z,46.99
2023-12-30T14:03:20.519Z,47.40
2023-12-30T14:05:48.918Z,47.93
2023-12-30T14:08:28.240Z,47.93
2023-12-30T14:10:55.610Z,48.03
2023-12-30T14:13:24.518Z,48.62
2023-12-30T14:15:52.820Z,48.95
2023-12-30T14:18:20.470Z,49.01
2023-12-30T14:20:48.092Z,50.12
2023-12-30T14:23:15.403Z,50.16
2023-12-30T14:25:42.459Z,50.65
2023-12-30T14:28:10.759Z,50.74
2023-12-30T14:30:39.826Z,51.29
2023-12-30T14:33:07.374Z,51.52
2023-12-30T14:35:34.649Z,52.17
2023-12-30T14:38:02.801Z,52.28
2023-12-30T14:40:30.039Z,52.52
2023-12-30T14:42:57.162Z,53.14
2023-12-30T14:45:24.243Z,53.55
2023-12-30T14:47:51.263Z,54.12
2023-12-30T14:50:18.647Z,54.34
2023-12-30T14:52:45.802Z,54.59
2023-12-30T14:55:12.851Z,55.48
2023-12-30T14:57:41.132Z,56.11
2023-12-30T15:00:15.482Z,55.94
2023-12-30T15:02:44.058Z,56.92
2023-12-30T15:05:15.292Z,57.11
2023-12-30T15:07:44.572Z,57.12
2023-12-30T15:10:14.947Z,57.71
2023-12-30T15:12:44.035Z,58.54
2023-12-30T15:15:12.814Z,59.34
2023-12-30T15:17:40.065Z,59.59
2023-12-30T15:20:09.578Z,59.93
2023-12-30T15:22:36.791Z,60.79
2023-12-30T15:25:04.003Z,61.17
2023-12-30T15:27:31.419Z,60.77
2023-12-30T15:29:58.553Z,61.21
2023-12-30T15:32:25.730Z,61.60
2023-12-30T15:34:52.668Z,61.66
2023-12-30T15:37:19.783Z,61.86
2023-12-30T15:39:46.824Z,62.68
2023-12-30T15:42:13.842Z,62.75
2023-12-30T15:44:41.032Z,63.21
2023-12-30T15:47:10.923Z,63.56
2023-12-30T15:49:43.127Z,64.31
2023-12-30T15:52:11.592Z,64.66
2023-12-30T15:54:39.663Z,64.98
2023-12-30T15:57:06.837Z,65.20
2023-12-30T15:59:33.957Z,65.28
2023-12-30T16:02:01.338Z,65.52
2023-12-30T16:04:28.380Z,66.20
2023-12-30T16:06:55.294Z,66.14
2023-12-30T16:09:22.410Z,66.70
2023-12-30T16:11:50.152Z,66.05
2023-12-30T16:14:17.044Z,66.20
2023-12-30T16:16:47.161Z,66.80
2023-12-30T16:19:19.791Z,66.55
2023-12-30T16:21:51.008Z,66.94
2023-12-30T16:24:18.683Z,67.65
2023-12-30T16:26:46.016Z,67.20
2023-12-30T16:29:13.070Z,68.29
2023-12-30T16:31:40.354Z,68.59
2023-12-30T16:34:07.639Z,68.81
2023-12-30T16:36:36.357Z,68.47
2023-12-30T16:39:03.644Z,68.31
2023-12-30T16:41:30.826Z,68.42
2023-12-30T16:43:58.831Z,68.48
2023-12-30T16:46:25.948Z,68.69
2023-12-30T16:48:52.971Z,68.64
2023-12-30T16:51:20.043Z,69.19
2023-12-30T16:53:47.067Z,69.07
2023-12-30T16:56:16.714Z,68.69
2023-12-30T16:58:43.560Z,69.70
2023-12-30T17:01:10.446Z,69.91
2023-12-30T17:03:37.198Z,70.00
2023-12-30T17:06:04.839Z,70.49
2023-12-30T17:08:31.971Z,70.05
2023-12-30T17:10:59.530Z,70.02
2023-12-30T17:13:34.898Z,70.63
2023-12-30T17:16:06.941Z,70.44
2023-12-30T17:18:33.807Z,70.76
2023-12-30T17:21:00.826Z,70.41
2023-12-30T17:23:27.904Z,70.20
2023-12-30T17:25:54.930Z,70.04
2023-12-30T17:28:21.712Z,70.63
2023-12-30T17:30:49.278Z,70.90
2023-12-30T17:33:16.481Z,70.90
2023-12-30T17:35:44.339Z,70.80
2023-12-30T17:38:11.287Z,70.33
2023-12-30T17:40:39.170Z,70.42
2023-12-30T17:43:06.667Z,70.83
2023-12-30T17:45:33.898Z,71.16
2023-12-30T17:48:00.971Z,71.36
2023-12-30T17:50:27.982Z,71.37
2023-12-30T17:52:54.769Z,70.78
2023-12-30T17:55:21.780Z,71.01
2023-12-30T17:57:48.902Z,71.57
2023-12-30T18:00:15.891Z,72.51
2023-12-30T18:02:43.791Z,71.92
2023-12-30T18:05:11.226Z,72.03
2023-12-30T18:07:38.337Z,71.90
2023-12-30T18:10:05.599Z,72.61
2023-12-30T18:12:32.605Z,73.41
2023-12-30T18:14:59.679Z,72.67
2023-12-30T18:17:28.863Z,72.17
2023-12-30T18:19:55.899Z,72.13
2023-12-30T18:22:23.038Z,71.53
2023-12-30T18:24:49.953Z,71.69
2023-12-30T18:27:16.719Z,71.90
2023-12-30T18:29:43.581Z,72.10
2023-12-30T18:32:11.859Z,72.16
2023-12-30T18:34:42.043Z,72.73
2023-12-30T18:37:08.978Z,72.95
2023-12-30T18:39:36.339Z,72.37
2023-12-30T18:42:03.601Z,72.45
2023-12-30T18:44:30.851Z,72.77
2023-12-30T18:46:58.788Z,73.27
2023-12-30T18:49:25.780Z,73.33
2023-12-30T18:51:52.640Z,74.29
2023-12-30T18:54:19.448Z,74.14
2023-12-30T18:56:47.127Z,73.94
2023-12-30T18:59:14.209Z,74.15
2023-12-30T19:01:46.319Z,73.73
2023-12-30T19:04:13.977Z,73.90
2023-12-30T19:06:40.974Z,73.84
2023-12-30T19:09:08.802Z,73.52
2023-12-30T19:11:36.332Z,73.75
2023-12-30T19:14:03.159Z,73.72
2023-12-30T19:16:30.110Z,74.16
2023-12-30T19:18:57.366Z,74.46
2023-12-30T19:21:24.428Z,75.06
2023-12-30T19:23:51.238Z,74.53
2023-12-30T19:26:18.102Z,75.29
2023-12-30T19:28:44.884Z,76.04
2023-12-30T19:31:14.594Z,75.88
2023-12-30T19:33:43.127Z,75.85
2023-12-30T19:36:11.496Z,75.53
2023-12-30T19:38:39.057Z,74.88
2023-12-30T19:41:06.161Z,75.00
2023-12-30T19:43:35.325Z,74.32
2023-12-30T19:46:06.885Z,74.71
2023-12-30T19:48:35.072Z,73.91
2023-12-30T19:51:04.897Z,73.04
2023-12-30T19:53:32.528Z,73.36
2023-12-30T19:55:59.253Z,73.37
2023-12-30T19:58:27.817Z,73.08
2023-12-30T20:00:54.964Z,72.65
2023-12-30T20:03:21.850Z,72.68
2023-12-30T20:05:48.819Z,72.67
2023-12-30T20:08:16.047Z,73.22
2023-12-30T20:10:44.092Z,72.98
2023-12-30T20:13:11.331Z,73.37
2023-12-30T20:15:38.544Z,74.28
2023-12-30T20:18:06.097Z,74.09
2023-12-30T20:20:33.189Z,73.06
2023-12-30T20:23:01.076Z,73.08
2023-12-30T20:25:31.004Z,72.81
2023-12-30T20:27:58.846Z,72.48
2023-12-30T20:30:27.540Z,72.63
2023-12-30T20:32:54.881Z,75.20
2023-12-30T20:35:22.058Z,77.25
2023-12-30T20:37:48.950Z,77.83
2023-12-30T20:40:16.507Z,77.66
2023-12-30T20:42:43.318Z,77.30
2023-12-30T20:45:11.224Z,76.89
2023-12-30T20:47:38.794Z,77.17
2023-12-30T20:50:06.193Z,77.02
2023-12-30T20:52:33.326Z,76.93
2023-12-30T20:55:04.353Z,76.53
2023-12-30T20:57:31.839Z,74.58
2023-12-30T20:59:58.832Z,75.10
2023-12-30T21:02:26.061Z,75.79
2023-12-30T21:04:55.470Z,75.68
2023-12-30T21:07:22.628Z,76.28
2023-12-30T21:09:49.798Z,77.07
2023-12-30T21:12:16.876Z,76.47
2023-12-30T21:14:43.902Z,76.05
2023-12-30T21:17:11.300Z,76.17
2023-12-30T21:19:38.460Z,76.21
2023-12-30T21:22:06.612Z,76.12
2023-12-30T21:24:33.726Z,76.82
2023-12-30T21:27:00.823Z,77.27
2023-12-30T21:29:27.887Z,77.52
2023-12-30T21:31:55.895Z,78.05
2023-12-30T21:34:23.105Z,77.79
2023-12-30T21:36:50.200Z,77.18
2023-12-30T21:39:18.527Z,77.08
2023-12-30T21:41:45.504Z,77.27
2023-12-30T21:44:12.399Z,76.62
2023-12-30T21:46:46.402Z,76.23
2023-12-30T21:49:15.892Z,76.19
2023-12-30T21:51:44.044Z,75.70
2023-12-30T21:54:11.492Z,75.92
2023-12-30T21:56:38.325Z,75.40
2023-12-30T21:59:05.304Z,75.88
2023-12-30T22:01:32.863Z,75.91
2023-12-30T22:03:59.910Z,75.21
2023-12-30T22:06:26.776Z,74.78
2023-12-30T22:08:53.963Z,74.34
2023-12-30T22:11:21.002Z,74.14
2023-12-30T22:13:48.150Z,74.05
2023-12-30T22:16:14.984Z,74.48
2023-12-30T22:18:42.111Z,75.12
2023-12-30T22:21:09.215Z,75.12
2023-12-30T22:23:37.347Z,75.00
2023-12-30T22:26:04.286Z,74.68
2023-12-30T22:28:31.301Z,75.06
2023-12-30T22:30:58.388Z,75.55
2023-12-30T22:33:26.126Z,75.62
2023-12-30T22:35:53.217Z,75.65
2023-12-30T22:38:20.293Z,75.50
2023-12-30T22:40:47.044Z,75.07
2023-12-30T22:43:13.887Z,75.46
2023-12-30T22:45:42.086Z,75.92
2023-12-30T22:48:09.224Z,75.74
2023-12-30T22:50:36.512Z,76.25
2023-12-30T22:53:04.065Z,76.21
2023-12-30T22:55:31.378Z,75.66
2023-12-30T22:57:58.368Z,75.68
2023-12-30T23:00:28.570Z,75.56
2023-12-30T23:02:56.217Z,75.34
2023-12-30T23:05:23.481Z,75.15
2023-12-30T23:07:50.499Z,75.33
2023-12-30T23:10:17.605Z,75.18
2023-12-30T23:12:44.938Z,75.73
2023-12-30T23:15:13.217Z,75.66
2023-12-30T23:17:39.970Z,75.91
2023-12-30T23:20:10.164Z,76.13
2023-12-30T23:22:37.009Z,75.82
2023-12-30T23:25:06.271Z,76.01
2023-12-30T23:27:33.926Z,76.20
2023-12-30T23:30:04.578Z,76.18
2023-12-30T23:32:33.881Z,76.31
2023-12-30T23:35:01.486Z,75.47
2023-12-30T23:37:28.503Z,75.40
2023-12-30T23:39:55.686Z,75.50
2023-12-30T23:42:22.680Z,75.33
2023-12-30T23:44:49.708Z,75.33
2023-12-30T23:47:16.680Z,75.50
2023-12-30T23:49:43.758Z,75.37
2023-12-30T23:52:10.933Z,75.62
2023-12-30T23:54:38.001Z,76.18
2023-12-30T23:57:05.284Z,75.19
2023-12-30T23:59:32.094Z,74.72
